Time;durP1;ratioP1;P1;durP2;ratioP2;P2;SDS_P1;SDS_P2;PMS_P1;PMS_P2;Temp;Humidity;BMP_temperature;BMP_pressure;BME280_temperature;BME280_humidity;BME280_pressure;Samples;Min_cycle;Max_cycle;Signal;HPM_P1;HPM_P2
2023/04/19 00:02:09;;;;;;;;;;;8.40;99.90;;;;;;5055525;28;19939;-80
2023/04/19 00:04:37;;;;;;;;;;;8.40;99.90;;;;;;5055206;28;19955;-80
2023/04/19 00:07:04;;;;;;;;;;;8.40;99.90;;;;;;5054908;28;19960;-80
2023/04/19 00:09:30;;;;;;;;;;;8.40;99.90;;;;;;5072689;28;20027;-80
2023/04/19 00:11:57;;;;;;;;;;;8.40;99.90;;;;;;5075201;28;19924;-80
2023/04/19 00:14:24;;;;;;;;;;;8.40;99.90;;;;;;5074036;28;19934;-80
2023/04/19 00:16:51;;;;;;;;;;;8.30;99.90;;;;;;5075583;28;19932;-81
2023/04/19 00:19:17;;;;;;;;;;;8.30;99.90;;;;;;5075460;28;19925;-80
2023/04/19 00:21:44;;;;;;;;;;;8.30;99.90;;;;;;5074823;28;19932;-81
2023/04/19 00:24:10;;;;;;;;;;;8.30;99.90;;;;;;5075621;28;19935;-80
2023/04/19 00:26:37;;;;;;;;;;;8.30;99.90;;;;;;5073457;28;19932;-80
2023/04/19 00:29:04;;;;;;;;;;;8.20;99.90;;;;;;5074989;28;19925;-80
2023/04/19 00:31:32;;;;;;;;;;;8.20;99.90;;;;;;5058406;28;19924;-81
2023/04/19 00:33:58;;;;;;;;;;;8.20;99.90;;;;;;5073622;28;20023;-80
2023/04/19 00:36:26;;;;;;;;;;;8.20;99.90;;;;;;5057821;28;19925;-81
2023/04/19 00:38:52;;;;;;;;;;;8.20;99.90;;;;;;5074799;28;19925;-81
2023/04/19 00:41:19;;;;;;;;;;;8.20;99.90;;;;;;5073777;28;19931;-80
2023/04/19 00:43:46;;;;;;;;;;;8.20;99.90;;;;;;5074440;28;19985;-81
2023/04/19 00:46:13;;;;;;;;;;;8.20;99.90;;;;;;5074111;28;19986;-81
2023/04/19 00:48:39;;;;;;;;;;;8.20;99.90;;;;;;5056900;28;19950;-81
2023/04/19 00:51:06;;;;;;;;;;;8.10;99.90;;;;;;5074441;28;19924;-81
2023/04/19 00:53:33;;;;;;;;;;;8.10;99.90;;;;;;5056715;28;20349;-81
2023/04/19 00:56:00;;;;;;;;;;;8.10;99.90;;;;;;5074027;28;20299;-81
2023/04/19 00:58:28;;;;;;;;;;;8.10;99.90;;;;;;5074745;28;19924;-80
2023/04/19 01:00:54;;;;;;;;;;;8.10;99.90;;;;;;5073174;28;20476;-80
2023/04/19 01:03:21;;;;;;;;;;;8.10;99.90;;;;;;5057764;28;20376;-80
2023/04/19 01:05:49;;;;;;;;;;;8.10;99.90;;;;;;5073939;28;20011;-81
2023/04/19 01:08:16;;;;;;;;;;;8.10;99.90;;;;;;5073981;28;20325;-80
2023/04/19 01:10:43;;;;;;;;;;;8.10;99.90;;;;;;5074444;28;20328;-79
2023/04/19 01:13:10;;;;;;;;;;;8.10;99.90;;;;;;5073303;28;20031;-81
2023/04/19 01:15:36;;;;;;;;;;;8.10;99.90;;;;;;5074920;28;19932;-80
2023/04/19 01:18:03;;;;;;;;;;;8.10;99.90;;;;;;5074382;28;19925;-80
2023/04/19 01:20:30;;;;;;;;;;;8.00;99.90;;;;;;5073211;28;20427;-80
2023/04/19 01:22:57;;;;;;;;;;;8.00;99.90;;;;;;5074231;28;20011;-80
2023/04/19 01:25:24;;;;;;;;;;;8.00;99.90;;;;;;5057255;28;19951;-80
2023/04/19 01:27:51;;;;;;;;;;;8.00;99.90;;;;;;5073001;28;19946;-81
2023/04/19 01:30:17;;;;;;;;;;;8.00;99.90;;;;;;5074080;28;19924;-80
2023/04/19 01:32:45;;;;;;;;;;;8.10;99.90;;;;;;5074016;28;19951;-80
2023/04/19 01:35:15;;;;;;;;;;;8.00;99.90;;;;;;5072933;28;19936;-80
2023/04/19 01:37:43;;;;;;;;;;;8.00;99.90;;;;;;5073673;28;19951;-81
2023/04/19 01:40:09;;;;;;;;;;;8.00;99.90;;;;;;5072716;28;19924;-80
2023/04/19 01:42:36;;;;;;;;;;;8.00;99.90;;;;;;5073870;28;19939;-80
2023/04/19 01:45:03;;;;;;;;;;;8.00;99.90;;;;;;5074000;28;19935;-80
2023/04/19 01:47:29;;;;;;;;;;;8.00;99.90;;;;;;5072480;28;19925;-81
2023/04/19 01:49:56;;;;;;;;;;;8.00;99.90;;;;;;5074868;28;19974;-81
2023/04/19 01:52:23;;;;;;;;;;;8.10;99.90;;;;;;5073903;28;20362;-81
2023/04/19 01:54:49;;;;;;;;;;;8.10;99.90;;;;;;5072472;28;19970;-81
2023/04/19 01:57:17;;;;;;;;;;;8.10;99.90;;;;;;5056685;28;19924;-81
2023/04/19 01:59:44;;;;;;;;;;;8.10;99.90;;;;;;5056143;28;19924;-81
2023/04/19 02:02:11;;;;;;;;;;;8.10;99.90;;;;;;5073616;28;20265;-81
2023/04/19 02:04:37;;;;;;;;;;;8.20;99.90;;;;;;5056951;28;19950;-81
2023/04/19 02:07:05;;;;;;;;;;;8.20;99.90;;;;;;5073137;28;19963;-81
2023/04/19 02:09:31;;;;;;;;;;;8.20;99.90;;;;;;5057023;28;19968;-81
2023/04/19 02:11:58;;;;;;;;;;;8.20;99.90;;;;;;5074677;28;19956;-81
2023/04/19 02:14:24;;;;;;;;;;;8.20;99.90;;;;;;5072519;28;19932;-81
2023/04/19 02:16:52;;;;;;;;;;;8.30;99.90;;;;;;5073298;28;19986;-81
2023/04/19 02:19:19;;;;;;;;;;;8.30;99.90;;;;;;5057205;28;19931;-81
2023/04/19 02:21:45;;;;;;;;;;;8.30;99.90;;;;;;5076864;28;20275;-81
2023/04/19 02:24:13;;;;;;;;;;;8.30;99.90;;;;;;5078378;28;20023;-81
2023/04/19 02:26:41;;;;;;;;;;;8.40;99.90;;;;;;5075791;28;20034;-81
2023/04/19 02:29:07;;;;;;;;;;;8.40;99.90;;;;;;5060582;28;20278;-81
2023/04/19 02:31:34;;;;;;;;;;;8.40;99.90;;;;;;5060562;28;19971;-81
2023/04/19 02:34:01;;;;;;;;;;;8.40;99.90;;;;;;5075924;28;19928;-81
2023/04/19 02:36:27;;;;;;;;;;;8.40;99.90;;;;;;5076598;28;19925;-81
2023/04/19 02:38:54;;;;;;;;;;;8.40;99.90;;;;;;5076973;28;19936;-81
2023/04/19 02:41:21;;;;;;;;;;;8.40;99.90;;;;;;5059436;28;19928;-81
2023/04/19 02:43:47;;;;;;;;;;;8.40;99.90;;;;;;5076806;28;20365;-81
2023/04/19 02:46:14;;;;;;;;;;;8.30;99.90;;;;;;5076400;28;19930;-81
2023/04/19 02:48:41;;;;;;;;;;;8.30;99.90;;;;;;5059132;28;20269;-81
2023/04/19 02:51:07;;;;;;;;;;;8.30;99.90;;;;;;5076736;28;19935;-81
2023/04/19 02:53:36;;;;;;;;;;;8.30;99.90;;;;;;5075618;28;19982;-81
2023/04/19 02:56:03;;;;;;;;;;;8.30;99.90;;;;;;5059626;28;19924;-81
2023/04/19 02:58:29;;;;;;;;;;;8.20;99.90;;;;;;5059994;28;20393;-81
2023/04/19 03:01:03;;;;;;;;;;;8.20;99.90;;;;;;5059959;28;19993;-81
2023/04/19 03:03:30;;;;;;;;;;;8.20;99.90;;;;;;5076462;28;19956;-81
2023/04/19 03:05:57;;;;;;;;;;;8.20;99.90;;;;;;5059410;28;20022;-81
2023/04/19 03:08:24;;;;;;;;;;;8.10;99.90;;;;;;5075439;28;20369;-81
2023/04/19 03:10:50;;;;;;;;;;;8.10;99.90;;;;;;5059766;28;20374;-81
2023/04/19 03:13:17;;;;;;;;;;;8.10;99.90;;;;;;5076398;28;19968;-81
2023/04/19 03:15:44;;;;;;;;;;;8.10;99.90;;;;;;5075837;28;19956;-81
2023/04/19 03:18:11;;;;;;;;;;;8.00;99.90;;;;;;5076166;28;19929;-81
2023/04/19 03:20:40;;;;;;;;;;;8.00;99.90;;;;;;5075772;28;19929;-81
2023/04/19 03:23:07;;;;;;;;;;;8.00;99.90;;;;;;5059706;28;19925;-81
2023/04/19 03:25:34;;;;;;;;;;;8.00;99.90;;;;;;5059136;28;19935;-81
2023/04/19 03:28:14;;;;;;;;;;;8.00;99.90;;;;;;5075057;28;19924;-81
2023/04/19 03:31:01;;;;;;;;;;;8.00;99.90;;;;;;5046007;28;19951;-81
2023/04/19 03:33:28;;;;;;;;;;;8.10;99.90;;;;;;5075799;28;20392;-81
2023/04/19 03:35:55;;;;;;;;;;;8.00;99.90;;;;;;5075468;28;19924;-81
2023/04/19 03:38:22;;;;;;;;;;;8.00;99.90;;;;;;5059434;28;19935;-81
2023/04/19 03:40:50;;;;;;;;;;;8.00;99.90;;;;;;5075054;28;19990;-80
2023/04/19 03:43:17;;;;;;;;;;;7.90;99.90;;;;;;5059142;28;19924;-80
2023/04/19 03:45:44;;;;;;;;;;;7.90;99.90;;;;;;5058855;28;19984;-80
2023/04/19 03:48:11;;;;;;;;;;;7.90;99.90;;;;;;5074565;28;19932;-80
2023/04/19 03:50:38;;;;;;;;;;;7.90;99.90;;;;;;5059131;28;20267;-80
2023/04/19 03:53:04;;;;;;;;;;;7.90;99.90;;;;;;5075566;28;19943;-81
2023/04/19 03:55:31;;;;;;;;;;;7.90;99.90;;;;;;5058496;28;19925;-80
2023/04/19 03:57:59;;;;;;;;;;;7.80;99.90;;;;;;5075460;28;19924;-81
2023/04/19 04:00:43;;;;;;;;;;;7.80;99.90;;;;;;5074378;28;20019;-80
2023/04/19 04:03:11;;;;;;;;;;;7.80;99.90;;;;;;5075890;28;19962;-80
2023/04/19 04:05:39;;;;;;;;;;;7.80;99.90;;;;;;5058425;28;19925;-80
2023/04/19 04:08:05;;;;;;;;;;;7.80;99.90;;;;;;5074356;28;19928;-81
2023/04/19 04:10:32;;;;;;;;;;;7.80;99.90;;;;;;5075251;28;19924;-81
2023/04/19 04:12:59;;;;;;;;;;;7.80;99.90;;;;;;5058213;28;19928;-80
2023/04/19 04:15:39;;;;;;;;;;;7.70;99.90;;;;;;5075100;28;20321;-80
2023/04/19 04:18:10;;;;;;;;;;;7.70;99.90;;;;;;5074975;28;19924;-80
2023/04/19 04:20:36;;;;;;;;;;;7.70;99.90;;;;;;5073984;28;19924;-80
2023/04/19 04:23:07;;;;;;;;;;;7.70;99.90;;;;;;5075249;28;19990;-80
2023/04/19 04:25:36;;;;;;;;;;;7.70;99.90;;;;;;5074599;28;19989;-80
2023/04/19 04:28:06;;;;;;;;;;;7.70;99.90;;;;;;5073848;28;19925;-80
2023/04/19 04:30:35;;;;;;;;;;;7.70;99.90;;;;;;5074862;28;19933;-80
2023/04/19 04:33:02;;;;;;;;;;;7.70;99.90;;;;;;5054821;28;19983;-80
2023/04/19 04:35:29;;;;;;;;;;;7.60;99.90;;;;;;5054894;28;19933;-81
2023/04/19 04:38:06;;;;;;;;;;;7.60;99.90;;;;;;5054977;28;20355;-81
2023/04/19 04:40:47;;;;;;;;;;;7.60;99.90;;;;;;5053758;28;19924;-81
2023/04/19 04:43:15;;;;;;;;;;;7.60;99.90;;;;;;5037871;28;19979;-81
2023/04/19 04:45:43;;;;;;;;;;;7.60;99.90;;;;;;5054147;28;19924;-81
2023/04/19 04:48:10;;;;;;;;;;;7.60;99.90;;;;;;5053490;28;19929;-81
2023/04/19 04:50:37;;;;;;;;;;;7.60;99.90;;;;;;5054539;28;19935;-81
2023/04/19 04:53:04;;;;;;;;;;;7.60;99.90;;;;;;5037020;28;20017;-81
2023/04/19 04:55:31;;;;;;;;;;;7.60;99.90;;;;;;5037560;28;19929;-81
2023/04/19 04:57:58;;;;;;;;;;;7.60;99.90;;;;;;5054504;28;19936;-81
2023/04/19 05:00:42;;;;;;;;;;;7.60;99.90;;;;;;5039434;28;19978;-80
2023/04/19 05:03:09;;;;;;;;;;;7.60;99.90;;;;;;5054239;28;19935;-80
2023/04/19 05:05:44;;;;;;;;;;;7.60;99.90;;;;;;5054123;28;19931;-81
2023/04/19 05:08:11;;;;;;;;;;;7.60;99.90;;;;;;5054166;28;19986;-80
2023/04/19 05:10:37;;;;;;;;;;;7.60;99.90;;;;;;5054302;28;19929;-80
2023/04/19 05:13:05;;;;;;;;;;;7.60;99.90;;;;;;5053199;28;20235;-80
2023/04/19 05:15:32;;;;;;;;;;;7.60;99.90;;;;;;5037300;28;19925;-80
2023/04/19 05:17:59;;;;;;;;;;;7.60;99.90;;;;;;5054152;28;19944;-80
2023/04/19 05:20:27;;;;;;;;;;;7.60;99.90;;;;;;5036969;28;19935;-80
2023/04/19 05:23:03;;;;;;;;;;;7.60;99.90;;;;;;5054298;28;19943;-80
2023/04/19 05:25:32;;;;;;;;;;;7.60;99.90;;;;;;5037551;28;20350;-81
2023/04/19 05:27:59;;;;;;;;;;;7.60;99.90;;;;;;5036660;28;20023;-80
2023/04/19 05:30:31;;;;;;;;;;;7.60;99.90;;;;;;5038367;28;20275;-80
2023/04/19 05:32:59;;;;;;;;;;;7.60;99.90;;;;;;5037069;28;20424;-80
2023/04/19 05:35:26;;;;;;;;;;;7.60;99.90;;;;;;5053714;28;20023;-80
2023/04/19 05:37:53;;;;;;;;;;;7.60;99.90;;;;;;5037450;28;19936;-80
2023/04/19 05:40:22;;;;;;;;;;;7.60;99.90;;;;;;5036471;28;20267;-80
2023/04/19 05:42:49;;;;;;;;;;;7.60;99.90;;;;;;5039815;28;19964;-80
2023/04/19 05:45:17;;;;;;;;;;;7.60;99.90;;;;;;5056942;28;19941;-81
2023/04/19 05:47:44;;;;;;;;;;;7.70;99.90;;;;;;5072770;28;19940;-80
2023/04/19 05:50:37;;;;;;;;;;;7.70;99.90;;;;;;5073957;28;19924;-80
2023/04/19 05:53:30;;;;;;;;;;;7.70;99.90;;;;;;5065638;28;20316;-79
2023/04/19 05:55:57;;;;;;;;;;;7.70;99.90;;;;;;5059155;28;19935;-80
2023/04/19 05:58:23;;;;;;;;;;;7.70;99.90;;;;;;5061302;28;19935;-80
2023/04/19 06:00:51;;;;;;;;;;;7.70;99.90;;;;;;5076805;28;19985;-80
2023/04/19 06:03:19;;;;;;;;;;;7.80;99.90;;;;;;5078551;28;19964;-80
2023/04/19 06:05:47;;;;;;;;;;;7.90;99.90;;;;;;5061010;28;19924;-80
2023/04/19 06:08:15;;;;;;;;;;;7.90;99.90;;;;;;5058422;28;20003;-80
2023/04/19 06:10:43;;;;;;;;;;;8.00;99.90;;;;;;5078874;28;20293;-80
2023/04/19 06:13:22;;;;;;;;;;;8.00;99.90;;;;;;5076322;28;19925;-81
2023/04/19 06:15:50;;;;;;;;;;;8.10;99.90;;;;;;5048761;28;19960;-81
2023/04/19 06:18:17;;;;;;;;;;;8.20;99.90;;;;;;5078189;28;20015;-81
2023/04/19 06:20:45;;;;;;;;;;;8.20;99.90;;;;;;5062163;28;20359;-81
2023/04/19 06:23:13;;;;;;;;;;;8.20;99.90;;;;;;5056761;28;19978;-82
2023/04/19 06:25:40;;;;;;;;;;;8.20;99.90;;;;;;5041540;28;19924;-81
2023/04/19 06:28:07;;;;;;;;;;;8.30;99.90;;;;;;5056371;28;19936;-83
2023/04/19 06:30:34;;;;;;;;;;;8.30;99.90;;;;;;5068643;28;19925;-81
2023/04/19 06:33:01;;;;;;;;;;;8.40;99.90;;;;;;5076120;28;20099;-80
2023/04/19 06:35:28;;;;;;;;;;;8.50;99.90;;;;;;5076572;28;20331;-81
2023/04/19 06:37:54;;;;;;;;;;;8.50;99.90;;;;;;5077558;28;19924;-81
2023/04/19 06:40:21;;;;;;;;;;;8.60;99.90;;;;;;5076703;28;19928;-80
2023/04/19 06:42:48;;;;;;;;;;;8.60;99.90;;;;;;5077011;28;20308;-80
2023/04/19 06:45:15;;;;;;;;;;;8.70;99.90;;;;;;5076407;28;19924;-81
2023/04/19 06:47:41;;;;;;;;;;;8.70;99.90;;;;;;5076716;28;20273;-81
2023/04/19 06:50:09;;;;;;;;;;;8.80;99.90;;;;;;5076873;28;19928;-81
2023/04/19 06:52:36;;;;;;;;;;;8.90;99.90;;;;;;5076704;28;20251;-81
2023/04/19 06:55:03;;;;;;;;;;;9.00;99.90;;;;;;5058566;28;19935;-81
2023/04/19 06:57:29;;;;;;;;;;;9.00;99.90;;;;;;5076587;28;20211;-81
2023/04/19 06:59:57;;;;;;;;;;;9.10;99.90;;;;;;5061961;28;19935;-80
2023/04/19 07:02:24;;;;;;;;;;;9.20;99.90;;;;;;5076557;28;20354;-81
2023/04/19 07:04:51;;;;;;;;;;;9.20;99.90;;;;;;5077094;28;19924;-81
2023/04/19 07:07:18;;;;;;;;;;;9.30;99.90;;;;;;5074729;28;19924;-80
2023/04/19 07:09:45;;;;;;;;;;;9.40;99.90;;;;;;5076985;28;20365;-81
2023/04/19 07:12:11;;;;;;;;;;;9.50;99.90;;;;;;5076260;28;19928;-82
2023/04/19 07:14:38;;;;;;;;;;;9.60;99.90;;;;;;5074719;28;19954;-81
2023/04/19 07:17:05;;;;;;;;;;;9.70;99.90;;;;;;5058964;28;19979;-81
2023/04/19 07:19:31;;;;;;;;;;;9.80;99.90;;;;;;5059736;28;20412;-82
2023/04/19 07:21:58;;;;;;;;;;;9.90;99.90;;;;;;5077049;28;20278;-84
2023/04/19 07:24:26;;;;;;;;;;;9.90;99.90;;;;;;5097477;28;19946;-82
2023/04/19 07:26:53;;;;;;;;;;;10.00;99.90;;;;;;5095063;28;19924;-83
2023/04/19 07:29:20;;;;;;;;;;;10.10;99.90;;;;;;5096562;28;19931;-83
2023/04/19 07:31:46;;;;;;;;;;;10.20;99.90;;;;;;5079522;28;19935;-82
2023/04/19 07:34:13;;;;;;;;;;;10.30;99.90;;;;;;5096034;28;20014;-82
2023/04/19 07:36:41;;;;;;;;;;;10.30;99.90;;;;;;5095746;28;19924;-82
2023/04/19 07:39:07;;;;;;;;;;;10.30;99.90;;;;;;5079595;28;19935;-83
2023/04/19 07:41:34;;;;;;;;;;;10.40;99.90;;;;;;5077553;28;19932;-85
2023/04/19 07:44:02;;;;;;;;;;;10.40;99.90;;;;;;5065281;28;19928;-82
2023/04/19 07:46:29;;;;;;;;;;;10.50;99.90;;;;;;4992306;28;19982;-84
2023/04/19 07:48:58;;;;;;;;;;;10.50;99.90;;;;;;5070698;28;19951;-81
2023/04/19 07:51:25;;;;;;;;;;;10.60;99.90;;;;;;5059528;28;19934;-81
2023/04/19 07:53:52;;;;;;;;;;;10.70;99.90;;;;;;5075679;28;19946;-82
2023/04/19 07:56:19;;;;;;;;;;;10.80;99.90;;;;;;5053320;28;19925;-81
2023/04/19 07:58:45;;;;;;;;;;;10.80;99.90;;;;;;5055053;28;19955;-81
2023/04/19 08:01:26;;;;;;;;;;;10.90;99.90;;;;;;5054110;28;19964;-82
2023/04/19 08:03:52;;;;;;;;;;;11.00;99.90;;;;;;5070475;28;19929;-81
2023/04/19 08:06:20;;;;;;;;;;;11.10;99.90;;;;;;5069942;28;20256;-81
2023/04/19 08:08:47;;;;;;;;;;;11.10;99.90;;;;;;5071079;28;19925;-81
2023/04/19 08:11:15;;;;;;;;;;;11.20;99.90;;;;;;5070299;28;19955;-81
2023/04/19 08:13:42;;;;;;;;;;;11.30;99.90;;;;;;5070358;28;19943;-81
2023/04/19 08:16:27;;;;;;;;;;;11.30;99.90;;;;;;5068963;28;19936;-82
2023/04/19 08:19:13;;;;;;;;;;;11.30;99.90;;;;;;5070289;28;20030;-82
2023/04/19 08:21:40;;;;;;;;;;;11.40;99.90;;;;;;5070329;28;20040;-82
2023/04/19 08:24:07;;;;;;;;;;;11.50;99.90;;;;;;5069092;28;20028;-83
2023/04/19 08:26:34;;;;;;;;;;;11.50;99.90;;;;;;5069116;28;19936;-81
2023/04/19 08:29:01;;;;;;;;;;;11.70;99.90;;;;;;5061236;28;19982;-82
2023/04/19 08:31:28;;;;;;;;;;;11.70;99.90;;;;;;5060675;28;19952;-82
2023/04/19 08:33:55;;;;;;;;;;;11.70;99.90;;;;;;5066725;28;19925;-82
2023/04/19 08:36:22;;;;;;;;;;;11.70;99.90;;;;;;5006987;28;19929;-84
2023/04/19 08:41:27;;;;;;;30.55;14.85;;;11.80;99.90;;;;;;5130266;27;20360;-85
2023/04/19 08:43:54;;;;;;;37.92;17.88;;;11.90;99.90;;;;;;5105225;28;20350;-84
2023/04/19 08:46:22;;;;;;;38.65;17.20;;;11.80;99.90;;;;;;5054930;28;20048;-83
2023/04/19 08:48:50;;;;;;;35.08;17.75;;;11.90;99.90;;;;;;5100113;28;20342;-84
2023/04/19 08:51:20;;;;;;;36.60;17.58;;;11.90;99.90;;;;;;5098280;28;20134;-82
2023/04/19 08:53:48;;;;;;;36.67;17.55;;;11.90;99.90;;;;;;5113170;28;20039;-83
2023/04/19 08:56:15;;;;;;;29.92;15.35;;;11.90;99.90;;;;;;5113259;28;20150;-82
2023/04/19 08:58:57;;;;;;;37.58;16.67;;;11.90;99.90;;;;;;5116573;28;20039;-83
2023/04/19 09:01:43;;;;;;;34.53;16.13;;;12.00;99.90;;;;;;5116349;28;20074;-83
2023/04/19 09:04:10;;;;;;;31.30;15.68;;;12.10;99.90;;;;;;5095667;28;20058;-85
2023/04/19 09:06:57;;;;;;;38.75;17.58;;;12.10;99.90;;;;;;5006333;28;20050;-85
2023/04/19 09:09:23;;;;;;;38.88;18.05;;;12.20;99.90;;;;;;5012473;28;20049;-86
2023/04/19 09:12:04;;;;;;;32.55;16.30;;;12.30;99.90;;;;;;5019164;28;20931;-85
2023/04/19 09:14:31;;;;;;;36.42;17.42;;;12.30;99.90;;;;;;5015885;28;20045;-86
2023/04/19 09:16:58;;;;;;;35.30;16.48;;;12.30;99.90;;;;;;4970894;28;20061;-85
2023/04/19 09:19:25;;;;;;;36.55;17.02;;;12.40;99.90;;;;;;5010515;28;20056;-87
2023/04/19 09:21:52;;;;;;;32.30;17.08;;;12.50;99.90;;;;;;5033657;28;20048;-85
2023/04/19 09:24:20;;;;;;;31.40;16.85;;;12.30;99.90;;;;;;5033154;28;20112;-86
2023/04/19 09:26:47;;;;;;;37.67;17.25;;;12.30;99.90;;;;;;5028027;28;20471;-84
2023/04/19 09:29:14;;;;;;;34.40;17.15;;;12.30;99.90;;;;;;5044146;28;20045;-86
2023/04/19 09:31:42;;;;;;;37.25;17.42;;;12.30;99.90;;;;;;5033955;28;20387;-86
2023/04/19 09:34:17;;;;;;;31.35;16.08;;;12.40;99.90;;;;;;5017857;28;20041;-87
2023/04/19 09:36:45;;;;;;;33.65;16.15;;;12.40;99.90;;;;;;5038681;28;20032;-85
2023/04/19 09:39:13;;;;;;;33.53;16.45;;;12.40;99.90;;;;;;5039455;28;20128;-87
2023/04/19 09:41:40;;;;;;;34.20;15.43;;;12.40;99.90;;;;;;5032699;28;20053;-85
2023/04/19 09:44:09;;;;;;;33.80;16.25;;;12.50;99.90;;;;;;5030042;28;20037;-85
2023/04/19 09:46:58;;;;;;;36.78;16.00;;;12.60;99.90;;;;;;5048828;28;20037;-85
2023/04/19 09:49:26;;;;;;;33.20;15.00;;;12.70;99.90;;;;;;5033327;28;20048;-88
2023/04/19 09:52:13;;;;;;;33.53;15.13;;;12.90;99.90;;;;;;5035745;28;20116;-84
2023/04/19 09:54:39;;;;;;;34.60;14.30;;;13.10;99.90;;;;;;5030856;28;20124;-84
2023/04/19 09:57:06;;;;;;;27.38;14.77;;;13.10;99.90;;;;;;5036083;28;20041;-87
2023/04/19 09:59:33;;;;;;;28.08;14.48;;;13.10;99.90;;;;;;5037305;28;20064;-85
2023/04/19 10:02:00;;;;;;;33.17;14.75;;;13.10;99.90;;;;;;5036323;28;20041;-88
2023/04/19 10:04:27;;;;;;;26.83;13.85;;;13.10;99.90;;;;;;5037291;28;20041;-83
2023/04/19 10:07:14;;;;;;;29.65;15.55;;;13.20;99.90;;;;;;5035520;28;20034;-86
2023/04/19 10:09:43;;;;;;;29.13;13.15;;;13.10;99.90;;;;;;5036436;28;20042;-86
2023/04/19 10:12:20;;;;;;;32.85;14.80;;;13.20;99.90;;;;;;5020840;28;20180;-86
2023/04/19 10:14:56;;;;;;;28.83;13.23;;;13.20;99.90;;;;;;5020341;28;20136;-87
2023/04/19 10:17:24;;;;;;;27.88;12.60;;;13.30;99.90;;;;;;5019343;28;20040;-84
2023/04/19 10:19:51;;;;;;;31.20;13.65;;;13.40;99.90;;;;;;5044329;28;20049;-85
2023/04/19 10:22:18;;;;;;;31.10;14.00;;;13.50;99.90;;;;;;5052506;28;20349;-84
2023/04/19 10:24:44;;;;;;;27.52;13.27;;;13.50;99.90;;;;;;5034927;28;20069;-84
2023/04/19 10:27:13;;;;;;;33.33;15.02;;;13.60;99.90;;;;;;5034548;28;20033;-81
2023/04/19 10:29:40;;;;;;;28.90;12.75;;;13.70;99.90;;;;;;5035017;28;20047;-85
2023/04/19 10:32:07;;;;;;;27.98;12.82;;;13.90;99.90;;;;;;5034782;28;20076;-85
2023/04/19 10:34:33;;;;;;;30.27;13.48;;;14.00;99.90;;;;;;5033874;28;20443;-82
2023/04/19 10:37:00;;;;;;;26.20;12.70;;;13.90;99.90;;;;;;5035604;28;20674;-84
2023/04/19 10:39:27;;;;;;;26.83;12.63;;;13.90;99.90;;;;;;5035168;28;20142;-83
2023/04/19 10:41:54;;;;;;;29.02;13.75;;;13.80;99.90;;;;;;5034521;28;20479;-83
2023/04/19 10:44:20;;;;;;;26.95;13.25;;;14.00;99.90;;;;;;5035447;28;20379;-84
2023/04/19 10:46:47;;;;;;;26.67;12.85;;;14.00;99.90;;;;;;5034121;28;20460;-84
2023/04/19 10:49:14;;;;;;;31.52;12.73;;;14.10;99.90;;;;;;5035243;28;20464;-86
2023/04/19 10:51:43;;;;;;;32.47;12.48;;;14.20;99.90;;;;;;5035346;28;20055;-86
2023/04/19 10:54:10;;;;;;;26.55;12.23;;;14.30;99.90;;;;;;5033523;28;20053;-84
2023/04/19 10:56:38;;;;;;;26.77;12.07;;;14.40;99.90;;;;;;5033960;28;20093;-85
2023/04/19 10:59:09;;;;;;;39.20;12.88;;;14.50;99.90;;;;;;5035206;28;20121;-82
2023/04/19 11:01:39;;;;;;;25.67;12.05;;;14.60;99.90;;;;;;5033485;28;20087;-84
2023/04/19 11:04:06;;;;;;;27.23;11.73;;;14.60;99.90;;;;;;5033855;28;20468;-85
2023/04/19 11:06:33;;;;;;;22.27;10.93;;;15.10;99.90;;;;;;5033431;28;20549;-84
2023/04/19 11:09:01;;;;;;;25.48;12.13;;;15.50;99.90;;;;;;5034294;28;20037;-84
2023/04/19 11:11:28;;;;;;;29.48;12.00;;;16.00;99.90;;;;;;5035757;28;20063;-84
2023/04/19 11:13:55;;;;;;;26.33;12.45;;;16.40;99.90;;;;;;5033387;28;20049;-86
2023/04/19 11:16:22;;;;;;;21.85;10.75;;;17.00;99.90;;;;;;5016972;28;20049;-86
2023/04/19 11:19:03;;;;;;;;;;;17.30;99.90;;;;;;5029960;28;20107;-84
2023/04/19 11:21:31;;;;;;;24.15;10.23;;;17.70;99.90;;;;;;5032931;28;20012;-85
2023/04/19 11:23:57;;;;;;;24.27;11.35;;;18.20;99.90;;;;;;5033856;28;20045;-86
2023/04/19 11:26:25;;;;;;;22.88;10.95;;;18.00;99.90;;;;;;5033690;28;20037;-85
2023/04/19 11:28:54;;;;;;;24.00;11.05;;;17.40;99.90;;;;;;5034311;28;20033;-86
2023/04/19 11:31:22;;;;;;;23.98;10.40;;;17.10;99.90;;;;;;5018131;28;20041;-89
2023/04/19 11:33:49;;;;;;;21.63;11.48;;;16.90;99.90;;;;;;5017676;28;20049;-84
2023/04/19 11:36:15;;;;;;;26.45;11.68;;;17.30;99.90;;;;;;5018584;28;20377;-84
2023/04/19 11:38:42;;;;;;;24.35;11.23;;;17.20;99.90;;;;;;5035015;28;20468;-85
2023/04/19 11:41:09;;;;;;;21.15;11.35;;;17.60;99.90;;;;;;5017533;28;20123;-84
2023/04/19 11:43:36;;;;;;;22.27;11.82;;;17.90;99.90;;;;;;5036164;28;20049;-82
2023/04/19 11:46:02;;;;;;;21.58;11.07;;;18.20;99.90;;;;;;5035218;28;20060;-87
2023/04/19 11:48:29;;;;;;;19.38;10.77;;;18.60;99.90;;;;;;5017830;28;20067;-85
2023/04/19 11:50:56;;;;;;;19.17;10.80;;;19.00;99.90;;;;;;5033155;28;20387;-85
2023/04/19 11:53:23;;;;;;;20.17;10.30;;;19.40;99.90;;;;;;5033312;28;20132;-81
2023/04/19 11:55:52;;;;;;;20.50;10.45;;;19.70;99.90;;;;;;5034967;28;20064;-83
2023/04/19 11:58:21;;;;;;;20.88;11.75;;;19.60;99.90;;;;;;5017638;28;20045;-86
2023/04/19 12:00:48;;;;;;;20.55;10.73;;;19.50;99.90;;;;;;5033932;28;20041;-86
2023/04/19 12:03:14;;;;;;;17.83;10.18;;;19.50;99.90;;;;;;5033541;28;20372;-84
2023/04/19 12:05:41;;;;;;;19.83;11.02;;;19.60;99.90;;;;;;5017436;28;20064;-87
2023/04/19 12:10:55;;;;;;;17.90;11.75;;;19.50;99.90;;;;;;5035012;28;20041;-84
2023/04/19 12:13:21;;;;;;;21.50;11.57;;;19.40;99.90;;;;;;5032839;28;20045;-85
2023/04/19 12:15:48;;;;;;;23.23;12.38;;;19.20;99.90;;;;;;5033034;28;20037;-84
2023/04/19 12:18:15;;;;;;;22.52;10.95;;;19.10;99.90;;;;;;5033904;28;20124;-86
2023/04/19 12:20:42;;;;;;;21.27;12.13;;;19.40;99.90;;;;;;5032764;28;20049;-85
2023/04/19 12:23:12;;;;;;;17.45;9.57;;;19.50;99.90;;;;;;5033987;28;20033;-84
2023/04/19 12:25:39;;;;;;;18.88;10.60;;;19.80;99.90;;;;;;5017283;28;20064;-83
2023/04/19 12:28:07;;;;;;;18.67;9.75;;;20.10;99.90;;;;;;5016105;28;20052;-84
2023/04/19 12:30:35;;;;;;;18.33;9.50;;;20.20;99.90;;;;;;5034760;28;20055;-84
2023/04/19 12:33:02;;;;;;;16.17;10.82;;;20.40;99.90;;;;;;5016651;28;20048;-85
2023/04/19 12:35:28;;;;;;;18.50;11.80;;;20.50;99.90;;;;;;5016878;28;20084;-85
2023/04/19 12:37:55;;;;;;;18.58;8.90;;;20.70;99.90;;;;;;5033626;28;20375;-83
2023/04/19 12:40:22;;;;;;;20.40;9.52;;;20.90;99.90;;;;;;5016059;28;20064;-84
2023/04/19 12:42:49;;;;;;;17.52;10.38;;;21.00;99.90;;;;;;5033555;28;20095;-87
2023/04/19 12:45:16;;;;;;;14.13;8.40;;;20.90;99.90;;;;;;5033130;28;20052;-83
2023/04/19 12:47:42;;;;;;;14.50;7.82;;;20.60;99.90;;;;;;5032549;28;20116;-83
2023/04/19 12:50:09;;;;;;;15.02;9.93;;;20.90;99.90;;;;;;5033591;28;20065;-85
2023/04/19 12:52:36;;;;;;;15.18;8.32;;;20.80;99.90;;;;;;5034541;28;20115;-85
2023/04/19 12:55:03;;;;;;;15.85;8.00;;;21.00;99.90;;;;;;5032149;28;20037;-86
2023/04/19 12:57:29;;;;;;;13.10;8.02;;;20.80;98.10;;;;;;5034481;28;20042;-85
2023/04/19 12:59:56;;;;;;;13.57;8.07;;;20.50;97.30;;;;;;5032681;28;20368;-87
2023/04/19 13:02:23;;;;;;;14.40;6.78;;;20.30;96.30;;;;;;5034777;28;20057;-87
2023/04/19 13:04:50;;;;;;;14.18;9.00;;;19.70;98.10;;;;;;5033365;28;20113;-85
2023/04/19 13:07:17;;;;;;;16.10;9.10;;;20.00;99.30;;;;;;5033599;28;20375;-83
2023/04/19 13:09:43;;;;;;;13.55;9.02;;;20.00;99.20;;;;;;5024707;28;20113;-86
2023/04/19 13:12:11;;;;;;;13.07;7.75;;;20.00;99.50;;;;;;5021723;28;20390;-82
2023/04/19 13:14:37;;;;;;;15.48;6.90;;;20.00;98.80;;;;;;5028322;28;20043;-86
2023/04/19 13:17:05;;;;;;;22.60;6.85;;;19.90;99.40;;;;;;5029259;28;20064;-86
2023/04/19 13:19:32;;;;;;;15.45;7.97;;;20.30;98.70;;;;;;5033677;28;20037;-87
2023/04/19 13:21:58;;;;;;;16.35;7.95;;;20.60;98.70;;;;;;5032102;28;20053;-85
2023/04/19 13:24:25;;;;;;;12.90;6.85;;;20.60;97.30;;;;;;5018543;28;20046;-84
2023/04/19 13:26:52;;;;;;;14.05;8.75;;;20.90;98.50;;;;;;5015068;28;20045;-86
2023/04/19 13:29:19;;;;;;;16.48;9.43;;;21.10;96.80;;;;;;5001262;28;20048;-84
2023/04/19 13:31:45;;;;;;;17.63;9.30;;;20.90;95.50;;;;;;5000856;28;20450;-87
2023/04/19 13:34:14;;;;;;;17.92;9.57;;;20.90;96.40;;;;;;5000236;28;20053;-86
2023/04/19 13:36:41;;;;;;;17.77;7.70;;;21.10;96.90;;;;;;5016976;28;20066;-85
2023/04/19 13:39:08;;;;;;;15.50;9.10;;;20.90;97.50;;;;;;5011578;28;20037;-85
2023/04/19 13:41:35;;;;;;;21.25;10.82;;;21.00;97.80;;;;;;5017444;28;20049;-86
2023/04/19 13:44:02;;;;;;;18.35;9.00;;;21.30;98.00;;;;;;5000689;28;20468;-88
2023/04/19 13:46:29;;;;;;;24.08;10.77;;;21.40;96.00;;;;;;5016238;28;20510;-86
2023/04/19 13:48:56;;;;;;;19.45;11.00;;;21.20;96.40;;;;;;5017292;28;20054;-87
2023/04/19 13:51:22;;;;;;;20.70;9.55;;;21.20;96.70;;;;;;5016740;28;20046;-86